sensor_id;sensor_type;location;lat;lon;timestamp;pressure;altitude;pressure_sealevel;temperature;humidity
42511;BME280;28141;51.120;17.114;2022-08-01T00:02:52;101377.54;;;29.74;39.80
42511;BME280;28141;51.120;17.114;2022-08-01T00:05:55;101376.95;;;29.72;39.92
42511;BME280;28141;51.120;17.114;2022-08-01T00:08:58;101374.41;;;29.70;39.82
42511;BME280;28141;51.120;17.114;2022-08-01T00:12:02;101368.48;;;29.67;39.44
42511;BME280;28141;51.120;17.114;2022-08-01T00:15:09;101364.26;;;29.64;39.78
42511;BME280;28141;51.120;17.114;2022-08-01T00:18:13;101377.65;;;29.62;39.79
42511;BME280;28141;51.120;17.114;2022-08-01T00:21:43;101371.39;;;29.55;40.17
42511;BME280;28141;51.120;17.114;2022-08-01T00:24:46;101368.84;;;29.54;40.59
42511;BME280;28141;51.120;17.114;2022-08-01T00:27:50;101360.48;;;29.54;40.13
42511;BME280;28141;51.120;17.114;2022-08-01T00:30:53;101370.23;;;29.51;40.46
42511;BME280;28141;51.120;17.114;2022-08-01T00:33:56;101370.74;;;29.48;40.75
42511;BME280;28141;51.120;17.114;2022-08-01T00:37:00;101372.93;;;29.46;40.75
42511;BME280;28141;51.120;17.114;2022-08-01T00:40:04;101370.39;;;29.45;40.23
42511;BME280;28141;51.120;17.114;2022-08-01T00:43:09;101367.61;;;29.45;40.81
42511;BME280;28141;51.120;17.114;2022-08-01T00:46:12;101369.23;;;29.40;40.52
42511;BME280;28141;51.120;17.114;2022-08-01T00:49:16;101356.01;;;29.36;41.11
42511;BME280;28141;51.120;17.114;2022-08-01T00:52:19;101355.41;;;29.34;40.57
42511;BME280;28141;51.120;17.114;2022-08-01T00:55:49;101360.39;;;29.32;40.63
42511;BME280;28141;51.120;17.114;2022-08-01T00:58:54;101355.10;;;29.30;40.54
42511;BME280;28141;51.120;17.114;2022-08-01T01:01:58;101353.66;;;29.28;40.52
42511;BME280;28141;51.120;17.114;2022-08-01T01:05:01;101356.71;;;29.26;40.99
42511;BME280;28141;51.120;17.114;2022-08-01T01:08:21;101349.93;;;29.22;40.93
42511;BME280;28141;51.120;17.114;2022-08-01T01:11:26;101346.58;;;29.20;41.16
42511;BME280;28141;51.120;17.114;2022-08-01T01:14:41;101347.93;;;29.18;40.70
42511;BME280;28141;51.120;17.114;2022-08-01T01:18:22;101349.53;;;29.14;40.95
42511;BME280;28141;51.120;17.114;2022-08-01T01:21:35;101340.25;;;29.08;41.44
42511;BME280;28141;51.120;17.114;2022-08-01T01:31:48;101351.49;;;28.96;41.28
42511;BME280;28141;51.120;17.114;2022-08-01T01:34:54;101345.98;;;29.01;41.50
42511;BME280;28141;51.120;17.114;2022-08-01T01:38:05;101343.54;;;29.05;41.04
42511;BME280;28141;51.120;17.114;2022-08-01T01:41:11;101331.72;;;28.98;41.08
42511;BME280;28141;51.120;17.114;2022-08-01T01:44:17;101333.13;;;29.00;41.27
42511;BME280;28141;51.120;17.114;2022-08-01T01:47:23;101322.81;;;29.01;40.91
42511;BME280;28141;51.120;17.114;2022-08-01T01:50:28;101320.27;;;28.99;41.16
42511;BME280;28141;51.120;17.114;2022-08-01T01:53:59;101330.02;;;28.97;41.22
42511;BME280;28141;51.120;17.114;2022-08-01T01:57:04;101327.24;;;28.97;40.89
42511;BME280;28141;51.120;17.114;2022-08-01T02:00:11;101323.59;;;28.96;41.39
42511;BME280;28141;51.120;17.114;2022-08-01T02:03:16;101318.87;;;28.97;41.40
42511;BME280;28141;51.120;17.114;2022-08-01T02:06:22;101327.48;;;28.95;41.15
42511;BME280;28141;51.120;17.114;2022-08-01T02:09:28;101325.80;;;28.94;41.17
42511;BME280;28141;51.120;17.114;2022-08-01T02:12:36;101325.55;;;28.96;41.25
42511;BME280;28141;51.120;17.114;2022-08-01T02:15:40;101322.75;;;28.96;41.29
42511;BME280;28141;51.120;17.114;2022-08-01T02:19:11;101324.59;;;28.90;41.35
42511;BME280;28141;51.120;17.114;2022-08-01T02:22:19;101321.22;;;28.88;41.47
42511;BME280;28141;51.120;17.114;2022-08-01T02:25:36;101321.22;;;28.88;41.49
42511;BME280;28141;51.120;17.114;2022-08-01T02:28:56;101318.95;;;28.85;40.93
42511;BME280;28141;51.120;17.114;2022-08-01T02:31:55;101327.98;;;28.92;41.82
42511;BME280;28141;51.120;17.114;2022-08-01T02:35:00;101323.59;;;28.96;41.23
42511;BME280;28141;51.120;17.114;2022-08-01T02:38:35;101321.41;;;28.98;41.22
42511;BME280;28141;51.120;17.114;2022-08-01T02:41:46;101311.91;;;28.99;40.98
42511;BME280;28141;51.120;17.114;2022-08-01T02:44:52;101320.63;;;29.03;40.88
42511;BME280;28141;51.120;17.114;2022-08-01T02:48:06;101318.68;;;29.03;40.61
42511;BME280;28141;51.120;17.114;2022-08-01T02:51:12;101321.22;;;29.05;40.87
42511;BME280;28141;51.120;17.114;2022-08-01T02:54:19;101319.88;;;29.08;41.42
42511;BME280;28141;51.120;17.114;2022-08-01T02:57:52;101323.23;;;29.10;40.97
42511;BME280;28141;51.120;17.114;2022-08-01T03:00:58;101317.73;;;29.15;40.59
42511;BME280;28141;51.120;17.114;2022-08-01T03:04:04;101312.41;;;29.13;40.90
42511;BME280;28141;51.120;17.114;2022-08-01T03:07:09;101314.36;;;29.13;40.80
42511;BME280;28141;51.120;17.114;2022-08-01T03:10:15;101317.73;;;29.15;40.52
42511;BME280;28141;51.120;17.114;2022-08-01T03:13:21;101323.23;;;29.10;40.65
42511;BME280;28141;51.120;17.114;2022-08-01T03:16:26;101323.52;;;29.08;41.39
42511;BME280;28141;51.120;17.114;2022-08-01T03:19:31;101319.88;;;29.08;41.19
42511;BME280;28141;51.120;17.114;2022-08-01T03:23:06;101322.06;;;29.05;40.81
42511;BME280;28141;51.120;17.114;2022-08-01T03:26:11;101322.56;;;29.02;41.06
42511;BME280;28141;51.120;17.114;2022-08-01T03:29:21;101322.81;;;29.01;40.90
42511;BME280;28141;51.120;17.114;2022-08-01T03:32:27;101323.01;;;28.94;41.02
42511;BME280;28141;51.120;17.114;2022-08-01T03:35:37;101329.18;;;28.96;40.91
42511;BME280;28141;51.120;17.114;2022-08-01T03:38:43;101323.59;;;28.96;40.86
42511;BME280;28141;51.120;17.114;2022-08-01T03:41:56;101319.43;;;28.99;40.69
42511;BME280;28141;51.120;17.114;2022-08-01T03:45:35;101316.32;;;28.95;40.91
42511;BME280;28141;51.120;17.114;2022-08-01T03:48:43;101320.80;;;28.96;40.98
42511;BME280;28141;51.120;17.114;2022-08-01T03:51:51;101320.56;;;28.98;41.00
42511;BME280;28141;51.120;17.114;2022-08-01T03:54:56;101315.84;;;28.98;40.93
42511;BME280;28141;51.120;17.114;2022-08-01T03:58:02;101319.43;;;28.99;40.82
42511;BME280;28141;51.120;17.114;2022-08-01T04:01:07;101329.24;;;29.01;40.73
42511;BME280;28141;51.120;17.114;2022-08-01T04:04:14;101329.84;;;29.03;41.34
42511;BME280;28141;51.120;17.114;2022-08-01T04:07:48;101335.41;;;29.03;40.83
42511;BME280;28141;51.120;17.114;2022-08-01T04:11:02;101340.15;;;29.03;40.87
42511;BME280;28141;51.120;17.114;2022-08-01T04:14:05;101334.06;;;29.06;40.86
42511;BME280;28141;51.120;17.114;2022-08-01T04:17:08;101335.51;;;29.09;40.54
42511;BME280;28141;51.120;17.114;2022-08-01T04:20:12;101336.35;;;29.09;40.92
42511;BME280;28141;51.120;17.114;2022-08-01T04:23:18;101335.23;;;29.10;40.81
42511;BME280;28141;51.120;17.114;2022-08-01T04:26:24;101335.57;;;29.14;40.76
42511;BME280;28141;51.120;17.114;2022-08-01T04:29:30;101331.69;;;29.15;40.69
42511;BME280;28141;51.120;17.114;2022-08-01T04:33:02;101327.46;;;29.12;40.77
42511;BME280;28141;51.120;17.114;2022-08-01T04:36:10;101321.02;;;29.12;40.44
42511;BME280;28141;51.120;17.114;2022-08-01T04:39:16;101324.91;;;29.11;40.63
42511;BME280;28141;51.120;17.114;2022-08-01T04:42:21;101325.77;;;29.11;40.82
42511;BME280;28141;51.120;17.114;2022-08-01T04:45:26;101328.30;;;29.13;40.88
42511;BME280;28141;51.120;17.114;2022-08-01T04:48:30;101334.98;;;29.12;40.65
42511;BME280;28141;51.120;17.114;2022-08-01T04:51:35;101334.22;;;29.16;40.47
42511;BME280;28141;51.120;17.114;2022-08-01T04:54:39;101334.57;;;29.20;41.13
42511;BME280;28141;51.120;17.114;2022-08-01T04:57:43;101337.36;;;29.20;40.33
42511;BME280;28141;51.120;17.114;2022-08-01T05:00:47;101330.65;;;29.21;40.68
42511;BME280;28141;51.120;17.114;2022-08-01T05:04:17;101333.73;;;29.19;40.63
42511;BME280;28141;51.120;17.114;2022-08-01T05:07:21;101340.66;;;29.17;40.64
42511;BME280;28141;51.120;17.114;2022-08-01T05:10:25;101334.29;;;29.21;40.66
42511;BME280;28141;51.120;17.114;2022-08-01T05:13:29;101333.02;;;29.29;40.41
42511;BME280;28141;51.120;17.114;2022-08-01T05:16:33;101332.44;;;29.27;40.34
42511;BME280;28141;51.120;17.114;2022-08-01T05:19:38;101333.52;;;29.26;40.42
42511;BME280;28141;51.120;17.114;2022-08-01T05:22:41;101330.84;;;29.31;40.36
42511;BME280;28141;51.120;17.114;2022-08-01T05:25:45;101333.27;;;29.27;40.37
42511;BME280;28141;51.120;17.114;2022-08-01T05:28:51;101331.84;;;29.25;40.86
42511;BME280;28141;51.120;17.114;2022-08-01T05:31:54;101327.05;;;29.20;40.67
42511;BME280;28141;51.120;17.114;2022-08-01T05:34:58;101332.34;;;29.22;40.88
42511;BME280;28141;51.120;17.114;2022-08-01T05:38:28;101325.92;;;29.21;40.68
42511;BME280;28141;51.120;17.114;2022-08-01T05:41:32;101323.98;;;29.22;40.60
42511;BME280;28141;51.120;17.114;2022-08-01T05:44:35;101327.61;;;29.22;40.70
42511;BME280;28141;51.120;17.114;2022-08-01T05:47:39;101321.19;;;29.22;40.56
42511;BME280;28141;51.120;17.114;2022-08-01T05:50:42;101326.77;;;29.22;40.67
42511;BME280;28141;51.120;17.114;2022-08-01T05:53:46;101326.77;;;29.22;40.84
42511;BME280;28141;51.120;17.114;2022-08-01T05:56:50;101328.55;;;29.28;40.73
42511;BME280;28141;51.120;17.114;2022-08-01T05:59:53;101324.91;;;29.27;40.98
42511;BME280;28141;51.120;17.114;2022-08-01T06:02:57;101330.89;;;29.36;40.75
42511;BME280;28141;51.120;17.114;2022-08-01T06:06:01;101332.49;;;29.32;40.33
42511;BME280;28141;51.120;17.114;2022-08-01T06:09:04;101326.77;;;29.38;41.38
42511;BME280;28141;51.120;17.114;2022-08-01T06:12:08;101330.17;;;29.40;40.73
42511;BME280;28141;51.120;17.114;2022-08-01T06:15:37;101341.89;;;29.43;40.69
42511;BME280;28141;51.120;17.114;2022-08-01T06:18:41;101333.00;;;29.46;40.46
42511;BME280;28141;51.120;17.114;2022-08-01T06:21:45;101337.74;;;29.45;40.52
42511;BME280;28141;51.120;17.114;2022-08-01T06:24:48;101333.36;;;29.49;40.36
42511;BME280;28141;51.120;17.114;2022-08-01T06:27:52;101331.71;;;29.53;40.66
42511;BME280;28141;51.120;17.114;2022-08-01T06:30:55;101330.36;;;29.56;41.08
42511;BME280;28141;51.120;17.114;2022-08-01T06:34:01;101332.38;;;29.60;40.29
42511;BME280;28141;51.120;17.114;2022-08-01T06:37:04;101330.75;;;29.64;40.37
42511;BME280;28141;51.120;17.114;2022-08-01T06:40:09;101337.01;;;29.71;40.73
42511;BME280;28141;51.120;17.114;2022-08-01T06:43:14;101347.38;;;29.76;40.47
42511;BME280;28141;51.120;17.114;2022-08-01T06:46:18;101334.27;;;29.76;40.55
42511;BME280;28141;51.120;17.114;2022-08-01T06:49:47;101338.49;;;29.79;40.55
42511;BME280;28141;51.120;17.114;2022-08-01T06:52:51;101342.21;;;29.85;40.82
42511;BME280;28141;51.120;17.114;2022-08-01T06:55:54;101332.65;;;29.81;39.80
42511;BME280;28141;51.120;17.114;2022-08-01T06:58:58;101342.21;;;29.85;40.61
42511;BME280;28141;51.120;17.114;2022-08-01T07:02:04;101337.77;;;29.89;40.64
42511;BME280;28141;51.120;17.114;2022-08-01T07:05:08;101336.34;;;29.86;41.15
42511;BME280;28141;51.120;17.114;2022-08-01T07:08:12;101343.52;;;29.99;41.44
42511;BME280;28141;51.120;17.114;2022-08-01T07:11:15;101334.11;;;30.05;40.76
42511;BME280;28141;51.120;17.114;2022-08-01T07:14:23;101338.13;;;30.14;41.51
42511;BME280;28141;51.120;17.114;2022-08-01T07:17:27;101334.80;;;30.17;40.86
42511;BME280;28141;51.120;17.114;2022-08-01T07:20:57;101342.65;;;30.20;40.90
42511;BME280;28141;51.120;17.114;2022-08-01T07:24:01;101344.33;;;30.21;40.89
42511;BME280;28141;51.120;17.114;2022-08-01T07:27:04;101348.09;;;30.32;41.54
42511;BME280;28141;51.120;17.114;2022-08-01T07:30:09;101341.66;;;30.31;40.38
42511;BME280;28141;51.120;17.114;2022-08-01T07:33:12;101330.54;;;30.36;41.40
42511;BME280;28141;51.120;17.114;2022-08-01T07:36:17;101344.09;;;30.49;40.63
42511;BME280;28141;51.120;17.114;2022-08-01T07:39:21;101340.88;;;30.63;39.85
42511;BME280;28141;51.120;17.114;2022-08-01T07:42:25;101335.02;;;30.64;40.46
42511;BME280;28141;51.120;17.114;2022-08-01T07:45:28;101342.06;;;30.72;40.53
42511;BME280;28141;51.120;17.114;2022-08-01T07:48:33;101343.82;;;30.78;40.91
42511;BME280;28141;51.120;17.114;2022-08-01T07:51:36;101344.70;;;30.83;41.21
42511;BME280;28141;51.120;17.114;2022-08-01T07:55:08;101344.25;;;30.97;40.42
42511;BME280;28141;51.120;17.114;2022-08-01T07:58:12;101346.00;;;31.03;40.51
42511;BME280;28141;51.120;17.114;2022-08-01T08:01:16;101343.74;;;31.05;40.12
42511;BME280;28141;51.120;17.114;2022-08-01T08:04:20;101349.16;;;31.11;40.41
42511;BME280;28141;51.120;17.114;2022-08-01T08:07:23;101345.26;;;31.12;39.61
42511;BME280;28141;51.120;17.114;2022-08-01T08:10:27;101358.69;;;31.15;39.54
42511;BME280;28141;51.120;17.114;2022-08-01T08:13:30;101355.99;;;31.26;40.28
42511;BME280;28141;51.120;17.114;2022-08-01T08:16:34;101354.38;;;31.35;39.70
42511;BME280;28141;51.120;17.114;2022-08-01T08:19:37;101354.38;;;31.35;39.60
42511;BME280;28141;51.120;17.114;2022-08-01T08:22:42;101362.20;;;31.38;39.36
42511;BME280;28141;51.120;17.114;2022-08-01T08:25:45;101360.30;;;31.43;39.43
42511;BME280;28141;51.120;17.114;2022-08-01T08:31:32;101362.84;;;31.45;39.27
42511;BME280;28141;51.120;17.114;2022-08-01T08:34:36;101372.09;;;31.50;39.45
42511;BME280;28141;51.120;17.114;2022-08-01T08:37:39;101372.09;;;31.50;39.54
42511;BME280;28141;51.120;17.114;2022-08-01T08:40:44;101372.14;;;31.55;39.31
42511;BME280;28141;51.120;17.114;2022-08-01T08:43:48;101370.19;;;31.56;39.16
42511;BME280;28141;51.120;17.114;2022-08-01T08:46:52;101373.00;;;31.61;39.55
42511;BME280;28141;51.120;17.114;2022-08-01T08:49:56;101374.38;;;31.58;39.29
42511;BME280;28141;51.120;17.114;2022-08-01T08:53:01;101371.58;;;31.58;39.74
42511;BME280;28141;51.120;17.114;2022-08-01T08:56:06;101376.72;;;31.67;39.18
42511;BME280;28141;51.120;17.114;2022-08-01T08:59:12;101379.80;;;31.70;39.20
42511;BME280;28141;51.120;17.114;2022-08-01T09:02:48;101388.45;;;31.64;39.38
42511;BME280;28141;51.120;17.114;2022-08-01T09:05:58;101391.58;;;31.72;39.16
42511;BME280;28141;51.120;17.114;2022-08-01T09:09:03;101389.63;;;31.73;39.59
42511;BME280;28141;51.120;17.114;2022-08-01T09:12:06;101387.98;;;31.77;39.24
42511;BME280;28141;51.120;17.114;2022-08-01T09:15:10;101388.25;;;31.80;39.79
42511;BME280;28141;51.120;17.114;2022-08-01T09:21:30;101386.03;;;31.82;39.45
42511;BME280;28141;51.120;17.114;2022-08-01T09:25:09;101393.86;;;31.80;39.43
42511;BME280;28141;51.120;17.114;2022-08-01T09:28:13;101387.71;;;31.78;39.39
42511;BME280;28141;51.120;17.114;2022-08-01T09:31:18;101387.44;;;31.80;39.67
42511;BME280;28141;51.120;17.114;2022-08-01T09:34:27;101389.99;;;31.91;39.32
42511;BME280;28141;51.120;17.114;2022-08-01T09:37:32;101382.16;;;31.93;39.09
42511;BME280;28141;51.120;17.114;2022-08-01T09:40:44;101380.24;;;31.99;39.12
42511;BME280;28141;51.120;17.114;2022-08-01T09:43:49;101390.61;;;31.99;38.91
42511;BME280;28141;51.120;17.114;2022-08-01T09:47:22;101388.34;;;31.96;39.11
42511;BME280;28141;51.120;17.114;2022-08-01T09:50:38;101385.54;;;31.96;39.27
42511;BME280;28141;51.120;17.114;2022-08-01T09:53:45;101385.84;;;31.99;39.38
42511;BME280;28141;51.120;17.114;2022-08-01T09:56:49;101382.73;;;31.96;39.05
42511;BME280;28141;51.120;17.114;2022-08-01T09:59:55;101383.85;;;31.95;39.00
42511;BME280;28141;51.120;17.114;2022-08-01T10:03:00;101387.27;;;32.07;39.51
42511;BME280;28141;51.120;17.114;2022-08-01T10:09:53;101393.94;;;31.90;39.23
42511;BME280;28141;51.120;17.114;2022-08-01T10:12:58;101381.63;;;31.97;38.89
42511;BME280;28141;51.120;17.114;2022-08-01T10:16:02;101386.16;;;32.08;39.22
42511;BME280;28141;51.120;17.114;2022-08-01T10:19:07;101379.74;;;32.12;39.18
42511;BME280;28141;51.120;17.114;2022-08-01T10:22:13;101374.67;;;32.14;38.63
42511;BME280;28141;51.120;17.114;2022-08-01T10:25:21;101376.10;;;32.12;38.87
42511;BME280;28141;51.120;17.114;2022-08-01T10:28:25;101378.31;;;32.15;39.10
42511;BME280;28141;51.120;17.114;2022-08-01T10:31:30;101380.01;;;32.16;38.49
42511;BME280;28141;51.120;17.114;2022-08-01T10:34:36;101376.10;;;32.17;38.85
42511;BME280;28141;51.120;17.114;2022-08-01T10:37:40;101371.66;;;32.21;39.12
42511;BME280;28141;51.120;17.114;2022-08-01T10:41:13;101380.34;;;32.19;38.96
42511;BME280;28141;51.120;17.114;2022-08-01T10:44:20;101373.05;;;32.18;38.82
42511;BME280;28141;51.120;17.114;2022-08-01T10:47:29;101371.93;;;32.24;39.50
42511;BME280;28141;51.120;17.114;2022-08-01T10:50:42;101364.88;;;32.17;39.18
42511;BME280;28141;51.120;17.114;2022-08-01T10:53:51;101370.49;;;32.12;39.03
42511;BME280;28141;51.120;17.114;2022-08-01T10:56:59;101365.99;;;32.11;38.99
42511;BME280;28141;51.120;17.114;2022-08-01T11:00:28;101370.76;;;32.10;39.38
42511;BME280;28141;51.120;17.114;2022-08-01T11:03:35;101376.10;;;32.17;39.43
42511;BME280;28141;51.120;17.114;2022-08-01T11:06:42;101376.10;;;32.17;39.11
42511;BME280;28141;51.120;17.114;2022-08-01T11:09:47;101372.72;;;32.15;39.67
42511;BME280;28141;51.120;17.114;2022-08-01T11:12:55;101370.76;;;32.15;39.58
42511;BME280;28141;51.120;17.114;2022-08-01T11:26:09;101372.23;;;32.28;40.33
42511;BME280;28141;51.120;17.114;2022-08-01T11:29:17;101370.86;;;32.31;39.76
42511;BME280;28141;51.120;17.114;2022-08-01T11:32:25;101372.80;;;32.35;39.04
42511;BME280;28141;51.120;17.114;2022-08-01T11:39:14;101369.46;;;32.33;39.90
42511;BME280;28141;51.120;17.114;2022-08-01T11:42:18;101366.40;;;32.45;39.19
42511;BME280;28141;51.120;17.114;2022-08-01T11:45:46;101375.66;;;32.50;39.26
42511;BME280;28141;51.120;17.114;2022-08-01T11:48:36;101368.38;;;32.54;39.79
42511;BME280;28141;51.120;17.114;2022-08-01T11:51:40;101361.06;;;32.48;38.68
42511;BME280;28141;51.120;17.114;2022-08-01T11:55:09;101366.69;;;32.58;39.23
42511;BME280;28141;51.120;17.114;2022-08-01T11:58:15;101364.75;;;32.64;39.64
42511;BME280;28141;51.120;17.114;2022-08-01T12:01:19;101361.43;;;32.77;38.99
42511;BME280;28141;51.120;17.114;2022-08-01T12:04:25;101360.87;;;32.85;39.17
42511;BME280;28141;51.120;17.114;2022-08-01T12:07:30;101351.59;;;32.80;37.89
42511;BME280;28141;51.120;17.114;2022-08-01T12:10:35;101353.28;;;32.81;38.87
42511;BME280;28141;51.120;17.114;2022-08-01T12:13:43;101357.16;;;32.70;39.07
42511;BME280;28141;51.120;17.114;2022-08-01T12:17:14;101358.61;;;32.72;38.93
42511;BME280;28141;51.120;17.114;2022-08-01T12:20:22;101349.34;;;32.72;38.77
42511;BME280;28141;51.120;17.114;2022-08-01T12:23:26;101352.72;;;32.79;38.33
42511;BME280;28141;51.120;17.114;2022-08-01T12:26:39;101362.27;;;32.83;38.59
42511;BME280;28141;51.120;17.114;2022-08-01T12:29:43;101348.80;;;32.75;38.46
42511;BME280;28141;51.120;17.114;2022-08-01T12:32:50;101358.34;;;32.74;39.36
42511;BME280;28141;51.120;17.114;2022-08-01T12:36:28;101363.95;;;32.74;38.90
42511;BME280;28141;51.120;17.114;2022-08-01T12:39:33;101351.03;;;32.73;38.84
42511;BME280;28141;51.120;17.114;2022-08-01T12:42:38;101352.17;;;32.87;38.26
42511;BME280;28141;51.120;17.114;2022-08-01T12:45:44;101356.36;;;32.99;38.31
42511;BME280;28141;51.120;17.114;2022-08-01T12:48:48;101339.78;;;33.13;38.10
42511;BME280;28141;51.120;17.114;2022-08-01T12:51:52;101344.30;;;33.04;38.33
42511;BME280;28141;51.120;17.114;2022-08-01T12:55:06;101356.09;;;33.06;38.26
42511;BME280;28141;51.120;17.114;2022-08-01T12:58:35;101353.55;;;33.05;38.29
42511;BME280;28141;51.120;17.114;2022-08-01T13:01:39;101346.55;;;33.07;38.35
42511;BME280;28141;51.120;17.114;2022-08-01T13:04:51;101346.79;;;33.21;37.97
42511;BME280;28141;51.120;17.114;2022-08-01T13:07:55;101344.30;;;33.24;37.85
42511;BME280;28141;51.120;17.114;2022-08-01T13:11:07;101342.01;;;33.47;37.81
42511;BME280;28141;51.120;17.114;2022-08-01T13:14:46;101348.18;;;33.49;37.87
42511;BME280;28141;51.120;17.114;2022-08-01T13:17:51;101349.30;;;33.43;37.96
42511;BME280;28141;51.120;17.114;2022-08-01T13:24:11;101346.52;;;33.38;38.05
42511;BME280;28141;51.120;17.114;2022-08-01T13:27:21;101344.25;;;33.50;37.86
42511;BME280;28141;51.120;17.114;2022-08-01T13:30:32;101340.88;;;33.48;38.49
42511;BME280;28141;51.120;17.114;2022-08-01T13:37:19;101348.69;;;33.66;37.90
42511;BME280;28141;51.120;17.114;2022-08-01T13:40:25;101352.60;;;33.85;36.03
42511;BME280;28141;51.120;17.114;2022-08-01T13:43:29;101349.70;;;34.00;33.82
42511;BME280;28141;51.120;17.114;2022-08-01T13:46:32;101356.55;;;33.74;32.26
42511;BME280;28141;51.120;17.114;2022-08-01T13:49:36;101350.69;;;33.60;31.53
42511;BME280;28141;51.120;17.114;2022-08-01T13:52:39;101356.66;;;33.28;31.00
42511;BME280;28141;51.120;17.114;2022-08-01T13:55:43;101367.88;;;32.93;30.21
42511;BME280;28141;51.120;17.114;2022-08-01T13:58:48;101371.19;;;32.70;29.95
42511;BME280;28141;51.120;17.114;2022-08-01T14:01:51;101366.66;;;32.38;30.11
42511;BME280;28141;51.120;17.114;2022-08-01T14:04:55;101370.86;;;32.31;32.09
42511;BME280;28141;51.120;17.114;2022-08-01T14:08:01;101366.68;;;32.43;33.50
42511;BME280;28141;51.120;17.114;2022-08-01T14:11:34;101367.30;;;32.81;33.78
42511;BME280;28141;51.120;17.114;2022-08-01T14:14:38;101358.89;;;33.06;34.36
42511;BME280;28141;51.120;17.114;2022-08-01T14:17:41;101356.66;;;33.23;34.12
42511;BME280;28141;51.120;17.114;2022-08-01T14:20:44;101358.89;;;33.42;34.12
42511;BME280;28141;51.120;17.114;2022-08-01T14:23:48;101357.67;;;33.73;34.63
42511;BME280;28141;51.120;17.114;2022-08-01T14:26:52;101367.19;;;33.87;34.52
42511;BME280;28141;51.120;17.114;2022-08-01T14:29:56;101363.42;;;34.12;34.79
42511;BME280;28141;51.120;17.114;2022-08-01T14:33:00;101367.59;;;34.20;34.54
42511;BME280;28141;51.120;17.114;2022-08-01T14:36:04;101360.84;;;34.21;34.46
42511;BME280;28141;51.120;17.114;2022-08-01T14:39:08;101363.10;;;34.19;34.81
42511;BME280;28141;51.120;17.114;2022-08-01T14:42:11;101365.07;;;34.18;34.79
42511;BME280;28141;51.120;17.114;2022-08-01T14:45:15;101363.70;;;34.16;34.75
42511;BME280;28141;51.120;17.114;2022-08-01T14:48:45;101370.92;;;34.37;35.07
42511;BME280;28141;51.120;17.114;2022-08-01T14:51:48;101373.95;;;34.46;34.62
42511;BME280;28141;51.120;17.114;2022-08-01T14:54:51;101376.97;;;34.59;35.13
42511;BME280;28141;51.120;17.114;2022-08-01T14:57:55;101375.01;;;34.60;35.30
42511;BME280;28141;51.120;17.114;2022-08-01T15:00:59;101366.84;;;34.58;35.12
42511;BME280;28141;51.120;17.114;2022-08-01T15:04:03;101367.41;;;34.55;34.66
42511;BME280;28141;51.120;17.114;2022-08-01T15:07:06;101368.53;;;34.59;35.21
42511;BME280;28141;51.120;17.114;2022-08-01T15:10:10;101367.22;;;34.86;34.56
42511;BME280;28141;51.120;17.114;2022-08-01T15:13:13;101365.80;;;34.88;34.73
42511;BME280;28141;51.120;17.114;2022-08-01T15:16:17;101362.51;;;35.10;34.48
42511;BME280;28141;51.120;17.114;2022-08-01T15:19:20;101362.51;;;35.10;34.57
42511;BME280;28141;51.120;17.114;2022-08-01T15:22:50;101364.20;;;35.11;34.50
42511;BME280;28141;51.120;17.114;2022-08-01T15:25:54;101366.45;;;35.09;34.36
42511;BME280;28141;51.120;17.114;2022-08-01T15:28:58;101365.98;;;35.02;34.94
42511;BME280;28141;51.120;17.114;2022-08-01T15:32:03;101358.10;;;34.99;35.12
42511;BME280;28141;51.120;17.114;2022-08-01T15:35:07;101375.36;;;35.21;35.09
42511;BME280;28141;51.120;17.114;2022-08-01T15:38:13;101367.76;;;35.50;34.28
42511;BME280;28141;51.120;17.114;2022-08-01T15:41:16;101384.77;;;35.69;34.38
42511;BME280;28141;51.120;17.114;2022-08-01T15:44:19;101384.77;;;35.93;33.96
42511;BME280;28141;51.120;17.114;2022-08-01T15:47:24;101408.72;;;35.96;34.30
42511;BME280;28141;51.120;17.114;2022-08-01T15:50:27;101407.69;;;36.10;34.08
42511;BME280;28141;51.120;17.114;2022-08-01T15:54:00;101412.84;;;36.03;34.02
42511;BME280;28141;51.120;17.114;2022-08-01T15:57:08;101414.59;;;35.99;34.43
42511;BME280;28141;51.120;17.114;2022-08-01T16:00:13;101405.73;;;35.87;34.40
42511;BME280;28141;51.120;17.114;2022-08-01T16:03:17;101416.45;;;35.85;34.58
42511;BME280;28141;51.120;17.114;2022-08-01T16:06:21;101422.17;;;35.80;34.75
42511;BME280;28141;51.120;17.114;2022-08-01T16:09:25;101426.21;;;35.69;34.47
42511;BME280;28141;51.120;17.114;2022-08-01T16:12:29;101428.87;;;35.55;34.87
42511;BME280;28141;51.120;17.114;2022-08-01T16:15:32;101435.49;;;35.40;34.92
42511;BME280;28141;51.120;17.114;2022-08-01T16:18:36;101427.22;;;35.49;35.31
42511;BME280;28141;51.120;17.114;2022-08-01T16:21:40;101435.68;;;35.49;35.55
42511;BME280;28141;51.120;17.114;2022-08-01T16:25:10;101431.50;;;35.46;35.47
42511;BME280;28141;51.120;17.114;2022-08-01T16:28:16;101431.90;;;35.35;35.75
42511;BME280;28141;51.120;17.114;2022-08-01T16:31:20;101439.53;;;35.29;35.75
42511;BME280;28141;51.120;17.114;2022-08-01T16:34:23;101437.62;;;35.25;35.56
42511;BME280;28141;51.120;17.114;2022-08-01T16:37:27;101432.65;;;35.06;36.17
42511;BME280;28141;51.120;17.114;2022-08-01T16:40:32;101445.05;;;35.05;36.03
42511;BME280;28141;51.120;17.114;2022-08-01T16:43:36;101447.28;;;35.08;36.08
42511;BME280;28141;51.120;17.114;2022-08-01T16:46:39;101447.91;;;35.00;35.74
42511;BME280;28141;51.120;17.114;2022-08-01T16:49:43;101450.81;;;34.90;35.92